Time;durP1;ratioP1;P1;durP2;ratioP2;P2;SDS_P1;SDS_P2;PMS_P1;PMS_P2;Temp;Humidity;BMP_temperature;BMP_pressure;BME280_temperature;BME280_humidity;BME280_pressure;Samples;Min_cycle;Max_cycle;Signal;HPM_P1;HPM_P2
2023/12/11 00:01:37;;;;;;;1.77;0.70;;;8.10;99.90;;;;;;4943790;28;20289;-29
2023/12/11 00:04:03;;;;;;;2.80;0.67;;;8.10;99.90;;;;;;4944515;28;20192;-31
2023/12/11 00:06:28;;;;;;;1.07;0.70;;;8.10;99.90;;;;;;4958530;28;20189;-31
2023/12/11 00:08:54;;;;;;;1.77;0.70;;;8.10;99.90;;;;;;4942671;28;20255;-31
2023/12/11 00:11:20;;;;;;;1.30;0.70;;;8.10;99.90;;;;;;4966727;28;20228;-30
2023/12/11 00:13:46;;;;;;;2.03;0.70;;;8.10;99.90;;;;;;4944240;28;20225;-29
2023/12/11 00:16:12;;;;;;;1.53;0.90;;;8.10;99.90;;;;;;4941456;28;20237;-30
2023/12/11 00:18:38;;;;;;;1.37;0.70;;;8.10;99.90;;;;;;4947134;28;20255;-34
2023/12/11 00:21:04;;;;;;;1.33;0.83;;;8.10;99.90;;;;;;4945447;28;20207;-29
2023/12/11 00:23:29;;;;;;;1.60;0.70;;;8.10;99.90;;;;;;4929849;28;20180;-30
2023/12/11 00:25:55;;;;;;;1.63;0.80;;;8.10;99.90;;;;;;4960718;28;20189;-31
2023/12/11 00:28:21;;;;;;;1.87;0.70;;;8.00;99.90;;;;;;4945524;28;20182;-30
2023/12/11 00:30:47;;;;;;;2.00;0.63;;;8.00;99.90;;;;;;4942522;28;20275;-29
2023/12/11 00:33:13;;;;;;;2.30;0.80;;;8.00;99.90;;;;;;4946742;28;20181;-32
2023/12/11 00:35:38;;;;;;;1.80;0.77;;;8.00;99.90;;;;;;4961348;28;20251;-30
2023/12/11 00:38:04;;;;;;;1.97;0.90;;;8.00;99.90;;;;;;4944282;28;20195;-29
2023/12/11 00:40:30;;;;;;;3.10;0.87;;;8.00;99.90;;;;;;4962821;28;20208;-30
2023/12/11 00:42:56;;;;;;;2.20;0.83;;;8.00;99.90;;;;;;4945931;28;20181;-33
2023/12/11 00:45:22;;;;;;;0.70;0.70;;;8.10;99.90;;;;;;4943870;28;20184;-32
2023/12/11 00:47:47;;;;;;;1.50;0.80;;;8.10;99.90;;;;;;4944388;28;20214;-32
2023/12/11 00:50:13;;;;;;;2.20;0.70;;;8.10;99.90;;;;;;4960800;28;20208;-29
2023/12/11 00:52:39;;;;;;;2.77;0.90;;;8.20;99.90;;;;;;4943705;28;20226;-30
2023/12/11 00:55:06;;;;;;;3.13;0.90;;;8.20;99.90;;;;;;4944858;28;20212;-31
2023/12/11 00:57:32;;;;;;;2.67;0.97;;;8.20;99.90;;;;;;4945857;28;20181;-32
2023/12/11 00:59:58;;;;;;;4.30;1.10;;;8.20;99.90;;;;;;4944949;28;20214;-31
2023/12/11 01:02:23;;;;;;;2.50;1.00;;;8.20;99.90;;;;;;4942212;28;20184;-29
2023/12/11 01:04:49;;;;;;;2.13;1.00;;;8.20;99.90;;;;;;4936248;28;20229;-32
2023/12/11 01:07:15;;;;;;;3.47;0.90;;;8.20;99.90;;;;;;4952949;28;20204;-32
2023/12/11 01:09:41;;;;;;;1.77;0.83;;;8.20;99.90;;;;;;4939731;29;20240;-32
2023/12/11 01:12:07;;;;;;;1.63;0.80;;;8.20;99.90;;;;;;4959912;28;20235;-32
2023/12/11 01:14:33;;;;;;;3.10;0.80;;;8.20;99.90;;;;;;4962053;28;20232;-32
2023/12/11 01:16:58;;;;;;;2.10;1.00;;;8.20;99.90;;;;;;4944420;28;20770;-31
2023/12/11 01:19:24;;;;;;;2.17;1.20;;;8.20;99.90;;;;;;4947001;28;20209;-32
2023/12/11 01:21:50;;;;;;;2.93;1.87;;;8.20;99.90;;;;;;4939152;28;20236;-32
2023/12/11 01:24:16;;;;;;;2.10;1.47;;;8.20;99.90;;;;;;4950115;28;20223;-31
2023/12/11 01:26:42;;;;;;;1.20;1.03;;;8.20;99.90;;;;;;4941313;28;20724;-31
2023/12/11 01:29:08;;;;;;;1.63;1.10;;;8.20;99.90;;;;;;4942125;28;20195;-32
2023/12/11 01:31:34;;;;;;;2.07;1.10;;;8.20;99.90;;;;;;4945878;28;20244;-31
2023/12/11 01:33:59;;;;;;;2.07;1.13;;;8.20;99.90;;;;;;4943019;28;20209;-31
2023/12/11 01:36:25;;;;;;;1.73;0.80;;;8.20;99.90;;;;;;4943075;28;20188;-32
2023/12/11 01:38:51;;;;;;;1.50;1.10;;;8.20;99.90;;;;;;4942549;28;20300;-32
2023/12/11 01:41:17;;;;;;;2.50;1.00;;;8.20;99.90;;;;;;4940991;28;20666;-31
2023/12/11 01:43:52;;;;;;;4.57;1.10;;;8.10;99.90;;;;;;4944859;28;20228;-32
2023/12/11 01:46:18;;;;;;;3.20;1.10;;;8.10;99.90;;;;;;4944399;28;20192;-32
2023/12/11 01:48:45;;;;;;;1.57;1.03;;;8.10;99.90;;;;;;4942534;28;20181;-32
2023/12/11 01:51:13;;;;;;;1.57;0.90;;;8.10;99.90;;;;;;4962534;28;20209;-32
2023/12/11 01:53:39;;;;;;;2.83;0.93;;;8.10;99.90;;;;;;4955189;28;20209;-32
2023/12/11 01:56:05;;;;;;;2.10;0.90;;;8.10;99.90;;;;;;4946918;28;20184;-32
2023/12/11 01:58:31;;;;;;;2.67;0.80;;;8.10;99.90;;;;;;4951061;28;20207;-31
2023/12/11 02:00:58;;;;;;;2.03;0.80;;;8.10;99.90;;;;;;4946887;28;20223;-32
2023/12/11 02:03:24;;;;;;;1.10;0.60;;;8.00;99.90;;;;;;4945359;28;20189;-32
2023/12/11 02:05:50;;;;;;;0.57;0.57;;;8.00;99.90;;;;;;4946894;28;20241;-32
2023/12/11 02:08:16;;;;;;;0.90;0.60;;;8.00;99.90;;;;;;4960198;28;20184;-31
2023/12/11 02:10:42;;;;;;;0.77;0.60;;;8.00;99.90;;;;;;4926655;28;20218;-31
2023/12/11 02:13:08;;;;;;;1.03;0.70;;;8.00;99.90;;;;;;4946221;28;20173;-32
2023/12/11 02:15:45;;;;;;;0.93;0.60;;;8.00;99.90;;;;;;4961739;28;20296;-32
2023/12/11 02:18:12;;;;;;;0.53;0.53;;;8.00;99.90;;;;;;4958352;28;20178;-31
2023/12/11 02:20:39;;;;;;;0.80;0.67;;;8.00;99.90;;;;;;4926093;28;20212;-31
2023/12/11 02:23:24;;;;;;;1.07;0.77;;;8.00;99.90;;;;;;4943920;28;20185;-32
2023/12/11 02:26:05;;;;;;;1.40;0.50;;;8.00;99.90;;;;;;4947242;28;20181;-32
2023/12/11 02:28:31;;;;;;;1.13;0.50;;;8.00;99.90;;;;;;4942962;28;20249;-31
2023/12/11 02:30:57;;;;;;;0.67;0.60;;;8.10;99.90;;;;;;4946693;28;20222;-31
2023/12/11 02:33:23;;;;;;;1.13;0.70;;;8.10;99.90;;;;;;4939874;29;20186;-32
2023/12/11 02:35:49;;;;;;;0.50;0.50;;;8.10;99.90;;;;;;4941230;28;20192;-32
2023/12/11 02:38:15;;;;;;;0.80;0.50;;;8.20;99.90;;;;;;4943781;28;20213;-32
2023/12/11 02:40:40;;;;;;;0.40;0.40;;;8.20;99.90;;;;;;4929401;28;20225;-31
2023/12/11 02:43:06;;;;;;;2.33;0.40;;;8.20;99.90;;;;;;4959272;28;20215;-32
2023/12/11 02:45:32;;;;;;;0.30;0.30;;;8.20;99.90;;;;;;4947121;28;20185;-31
2023/12/11 02:48:02;;;;;;;0.20;0.20;;;8.20;99.90;;;;;;4942109;29;20182;-32
2023/12/11 02:50:32;;;;;;;0.63;0.50;;;8.20;99.90;;;;;;4937455;28;20209;-33
2023/12/11 02:52:59;;;;;;;0.50;0.40;;;8.10;99.90;;;;;;4947247;28;20185;-31
2023/12/11 02:55:25;;;;;;;1.50;0.30;;;8.10;99.90;;;;;;4944317;28;20249;-30
2023/12/11 02:57:56;;;;;;;0.40;0.30;;;8.00;99.90;;;;;;4936386;29;20190;-32
2023/12/11 03:00:22;;;;;;;0.43;0.40;;;8.00;99.90;;;;;;4960264;28;20205;-31
2023/12/11 03:02:48;;;;;;;0.37;0.27;;;8.00;99.90;;;;;;4945755;28;20182;-32
2023/12/11 03:05:14;;;;;;;0.40;0.40;;;8.00;99.90;;;;;;4947711;29;20189;-31
2023/12/11 03:07:40;;;;;;;2.23;0.40;;;7.90;99.90;;;;;;4945699;28;20217;-34
2023/12/11 03:10:06;;;;;;;0.33;0.30;;;7.90;99.90;;;;;;4939369;28;20185;-31
2023/12/11 03:12:32;;;;;;;0.37;0.37;;;7.90;99.90;;;;;;4927163;29;20189;-31
2023/12/11 03:14:58;;;;;;;0.47;0.47;;;7.90;99.90;;;;;;4935209;28;20276;-32
2023/12/11 03:17:23;;;;;;;0.40;0.40;;;7.80;99.90;;;;;;4949442;29;20188;-33
2023/12/11 03:19:49;;;;;;;0.37;0.30;;;7.70;99.90;;;;;;4922740;28;20217;-32
2023/12/11 03:22:15;;;;;;;0.50;0.50;;;7.70;99.90;;;;;;4940619;28;20236;-35
2023/12/11 03:24:41;;;;;;;0.60;0.50;;;7.70;99.90;;;;;;4953711;29;20186;-31
2023/12/11 03:27:06;;;;;;;0.93;0.70;;;7.70;99.90;;;;;;4923288;29;20185;-32
2023/12/11 03:29:32;;;;;;;0.77;0.67;;;7.70;99.90;;;;;;4938924;28;20213;-32
2023/12/11 03:31:58;;;;;;;1.30;0.70;;;7.60;99.90;;;;;;4961510;28;20226;-33
2023/12/11 03:34:24;;;;;;;0.90;0.83;;;7.60;99.90;;;;;;4942601;28;20215;-32
2023/12/11 03:36:50;;;;;;;1.00;0.90;;;7.60;99.90;;;;;;4940751;29;20185;-31
2023/12/11 03:39:15;;;;;;;0.67;0.60;;;7.60;99.90;;;;;;4958232;28;20217;-31
2023/12/11 03:41:41;;;;;;;0.80;0.53;;;7.60;99.90;;;;;;4927629;28;20197;-31
2023/12/11 03:44:07;;;;;;;1.07;0.80;;;7.60;99.90;;;;;;4945085;28;20185;-32
2023/12/11 03:46:33;;;;;;;0.60;0.60;;;7.50;99.90;;;;;;4947886;28;20272;-31
2023/12/11 03:48:59;;;;;;;2.03;0.63;;;7.60;99.90;;;;;;4943529;28;20696;-32
2023/12/11 03:51:25;;;;;;;2.17;0.90;;;7.50;99.90;;;;;;4958487;28;20209;-32
2023/12/11 03:53:51;;;;;;;1.07;0.90;;;7.50;99.90;;;;;;4923227;28;20196;-32
2023/12/11 03:56:16;;;;;;;1.00;0.80;;;7.50;99.90;;;;;;4937965;29;20663;-32
2023/12/11 03:58:42;;;;;;;1.17;0.90;;;7.60;99.90;;;;;;4919385;29;20189;-31
2023/12/11 04:01:08;;;;;;;1.20;0.77;;;7.60;99.90;;;;;;4956332;28;20196;-31
2023/12/11 04:03:34;;;;;;;0.67;0.67;;;7.60;99.90;;;;;;4958879;28;20208;-31
2023/12/11 04:05:59;;;;;;;0.70;0.70;;;7.70;99.90;;;;;;4943493;28;20181;-32
2023/12/11 04:08:25;;;;;;;0.70;0.70;;;7.70;99.90;;;;;;4943005;28;20207;-31
2023/12/11 04:10:51;;;;;;;0.70;0.70;;;7.70;99.90;;;;;;4944053;28;20235;-32
2023/12/11 04:13:17;;;;;;;3.03;2.70;;;7.70;99.90;;;;;;4946829;28;20212;-29
2023/12/11 04:15:43;;;;;;;3.23;2.00;;;7.70;99.90;;;;;;4963487;28;20191;-30
2023/12/11 04:18:08;;;;;;;2.70;2.30;;;7.80;99.90;;;;;;4946230;28;20328;-30
2023/12/11 04:20:34;;;;;;;3.20;2.50;;;7.70;99.90;;;;;;4962583;28;20215;-30
2023/12/11 04:23:00;;;;;;;2.97;2.20;;;7.70;99.90;;;;;;4961292;28;20275;-30
2023/12/11 04:25:26;;;;;;;0.90;0.90;;;7.70;99.90;;;;;;4943533;28;20185;-29
2023/12/11 04:27:52;;;;;;;0.70;0.70;;;7.70;99.90;;;;;;4957518;28;20180;-29
2023/12/11 04:30:17;;;;;;;0.70;0.67;;;7.70;99.90;;;;;;4940515;28;20299;-30
2023/12/11 04:32:43;;;;;;;0.80;0.60;;;7.80;99.90;;;;;;4946135;28;20219;-30
2023/12/11 04:35:09;;;;;;;1.30;0.90;;;7.80;99.90;;;;;;4936758;29;20276;-32
2023/12/11 04:37:35;;;;;;;1.57;0.90;;;7.80;99.90;;;;;;4918237;28;20230;-31
2023/12/11 04:40:03;;;;;;;1.10;0.70;;;7.80;99.90;;;;;;4930750;28;20228;-32
2023/12/11 04:42:28;;;;;;;1.83;0.87;;;7.80;99.90;;;;;;4937926;29;20185;-32
2023/12/11 04:44:55;;;;;;;3.03;0.60;;;7.70;99.90;;;;;;4924040;28;20184;-31
2023/12/11 04:47:20;;;;;;;0.60;0.60;;;7.70;99.90;;;;;;4950493;28;20188;-32
2023/12/11 04:49:46;;;;;;;2.13;1.20;;;7.80;99.90;;;;;;4934497;29;20190;-32
2023/12/11 04:52:12;;;;;;;1.30;1.10;;;7.80;99.90;;;;;;4918551;29;20277;-30
2023/12/11 04:54:38;;;;;;;1.23;1.13;;;7.80;99.90;;;;;;4950516;29;20197;-32
2023/12/11 04:57:04;;;;;;;1.57;1.10;;;7.80;99.90;;;;;;4951924;28;20196;-30
2023/12/11 04:59:29;;;;;;;1.40;0.73;;;7.80;99.90;;;;;;4917865;29;20220;-33
2023/12/11 05:01:55;;;;;;;1.73;1.10;;;7.80;99.90;;;;;;4935215;29;20348;-31
2023/12/11 05:04:21;;;;;;;2.27;1.27;;;7.80;99.90;;;;;;4935008;29;20185;-30
2023/12/11 05:06:48;;;;;;;1.60;1.30;;;7.80;99.90;;;;;;4954647;28;20181;-29
2023/12/11 05:09:14;;;;;;;3.57;2.27;;;7.80;99.90;;;;;;4946943;28;20255;-32
2023/12/11 05:11:40;;;;;;;4.77;2.20;;;7.90;99.90;;;;;;4945109;29;20213;-31
2023/12/11 05:14:06;;;;;;;2.17;1.97;;;7.80;99.90;;;;;;4924022;28;20211;-31
2023/12/11 05:16:31;;;;;;;2.70;1.70;;;7.80;99.90;;;;;;4940235;29;20252;-32
2023/12/11 05:18:57;;;;;;;2.80;1.40;;;7.70;99.90;;;;;;4920543;29;20316;-32
2023/12/11 05:21:23;;;;;;;1.30;1.00;;;7.70;99.90;;;;;;4925085;28;20201;-33
2023/12/11 05:23:50;;;;;;;1.23;0.87;;;7.70;99.90;;;;;;4950530;28;20200;-33
2023/12/11 05:26:22;;;;;;;0.97;0.90;;;7.60;99.90;;;;;;4935288;29;20280;-31
2023/12/11 05:28:48;;;;;;;1.93;0.90;;;7.60;99.90;;;;;;4943838;29;20192;-32
2023/12/11 05:31:15;;;;;;;1.67;0.93;;;7.60;99.90;;;;;;4962388;28;20217;-32
2023/12/11 05:33:41;;;;;;;1.30;0.97;;;7.50;99.90;;;;;;4944864;28;20216;-32
2023/12/11 05:36:08;;;;;;;1.30;1.10;;;7.50;99.90;;;;;;4944057;28;20181;-30
2023/12/11 05:38:34;;;;;;;1.07;0.97;;;7.40;99.90;;;;;;4956131;28;20220;-32
2023/12/11 05:41:00;;;;;;;1.33;1.23;;;7.40;99.90;;;;;;4943671;29;20244;-32
2023/12/11 05:43:26;;;;;;;1.50;1.40;;;7.40;99.90;;;;;;4957507;28;20187;-31
2023/12/11 05:45:51;;;;;;;4.10;2.00;;;7.40;99.90;;;;;;4939400;29;20181;-31
2023/12/11 05:48:18;;;;;;;3.77;1.63;;;7.50;99.90;;;;;;4948906;28;20189;-31
2023/12/11 05:50:44;;;;;;;4.00;1.77;;;7.50;99.90;;;;;;4926607;28;20197;-32
2023/12/11 05:53:11;;;;;;;3.80;1.87;;;7.50;99.90;;;;;;4940171;28;20192;-32
2023/12/11 05:55:39;;;;;;;2.43;2.07;;;7.60;99.90;;;;;;4935924;28;20194;-34
2023/12/11 05:58:05;;;;;;;3.43;2.20;;;7.60;99.90;;;;;;4950031;28;20280;-33
2023/12/11 06:00:31;;;;;;;3.37;2.50;;;7.60;99.90;;;;;;4939948;28;20208;-30
2023/12/11 06:02:57;;;;;;;4.30;2.57;;;7.60;99.90;;;;;;4956446;28;20199;-30
2023/12/11 06:05:24;;;;;;;4.33;2.87;;;7.60;99.90;;;;;;4934684;29;20178;-32
2023/12/11 06:07:50;;;;;;;6.80;4.00;;;7.60;99.90;;;;;;4946393;29;20189;-32
2023/12/11 06:10:15;;;;;;;6.67;4.40;;;7.60;99.90;;;;;;4941138;28;20201;-32
2023/12/11 06:12:41;;;;;;;7.33;4.00;;;7.60;99.90;;;;;;4922052;29;20185;-31
2023/12/11 06:15:07;;;;;;;4.83;3.27;;;7.70;99.90;;;;;;4944154;28;20192;-31
2023/12/11 06:17:33;;;;;;;3.37;1.60;;;7.70;99.90;;;;;;4954631;28;20219;-32
2023/12/11 06:19:59;;;;;;;1.57;1.20;;;7.70;99.90;;;;;;4921028;28;20253;-31
2023/12/11 06:22:25;;;;;;;2.97;1.63;;;7.80;99.90;;;;;;4936945;29;20196;-31
2023/12/11 06:24:51;;;;;;;4.03;2.40;;;7.80;99.90;;;;;;4937558;29;20185;-32
2023/12/11 06:27:17;;;;;;;4.77;2.60;;;7.80;99.90;;;;;;4937348;29;20269;-32
2023/12/11 06:29:42;;;;;;;5.37;2.80;;;7.90;99.90;;;;;;4921325;29;20193;-33
2023/12/11 06:32:08;;;;;;;4.27;2.47;;;8.00;99.90;;;;;;4937004;29;20216;-33
2023/12/11 06:34:35;;;;;;;6.77;4.77;;;8.10;99.90;;;;;;4937182;29;20197;-33
2023/12/11 06:37:01;;;;;;;9.77;6.33;;;8.10;99.90;;;;;;4936700;29;20177;-32
2023/12/11 06:39:27;;;;;;;11.77;7.80;;;8.10;99.90;;;;;;4920601;29;20206;-31
2023/12/11 06:41:53;;;;;;;13.07;8.63;;;8.20;99.90;;;;;;4937207;29;20292;-28
2023/12/11 06:44:19;;;;;;;11.60;8.77;;;8.20;99.90;;;;;;4936072;29;20178;-34
2023/12/11 06:46:44;;;;;;;6.63;4.97;;;8.20;99.90;;;;;;4971553;28;20188;-29
2023/12/11 06:49:10;;;;;;;2.53;2.00;;;8.20;99.90;;;;;;4936670;29;20214;-30
2023/12/11 06:51:37;;;;;;;4.93;2.40;;;8.30;99.90;;;;;;4935636;29;20218;-32
2023/12/11 06:54:03;;;;;;;4.23;2.80;;;8.30;99.90;;;;;;4921580;29;20186;-34
2023/12/11 06:56:32;;;;;;;2.50;2.10;;;8.30;99.90;;;;;;4920683;28;20196;-32
2023/12/11 06:58:58;;;;;;;4.17;2.40;;;8.40;99.90;;;;;;4920873;29;20221;-31
2023/12/11 07:01:31;;;;;;;3.63;2.37;;;8.40;99.90;;;;;;4920669;29;20220;-32
2023/12/11 07:03:57;;;;;;;2.77;1.97;;;8.40;99.90;;;;;;4925295;29;20208;-31
2023/12/11 07:06:26;;;;;;;3.20;2.60;;;8.40;99.90;;;;;;4936625;29;20174;-32
2023/12/11 07:08:52;;;;;;;2.77;2.13;;;8.30;99.90;;;;;;4920810;29;20174;-31
2023/12/11 07:11:19;;;;;;;4.03;1.80;;;8.30;99.90;;;;;;4920888;29;20197;-32
2023/12/11 07:13:44;;;;;;;2.20;1.40;;;8.30;99.90;;;;;;4923572;28;20173;-32
2023/12/11 07:16:11;;;;;;;2.00;1.27;;;8.30;99.90;;;;;;4952254;28;20189;-32
2023/12/11 07:18:38;;;;;;;3.50;1.70;;;8.20;99.90;;;;;;4944458;29;20190;-35
2023/12/11 07:21:11;;;;;;;3.43;1.90;;;8.10;99.90;;;;;;4919497;29;20213;-33
2023/12/11 07:23:38;;;;;;;4.37;3.83;;;8.10;99.90;;;;;;4920822;29;20200;-34
2023/12/11 07:26:08;;;;;;;4.83;4.23;;;8.00;99.90;;;;;;4920547;29;20189;-33
2023/12/11 07:28:37;;;;;;;7.43;6.63;;;7.90;99.90;;;;;;4920387;29;20719;-32
2023/12/11 07:31:05;;;;;;;4.37;3.37;;;7.80;99.90;;;;;;4940555;28;20208;-33
2023/12/11 07:33:32;;;;;;;1.70;1.57;;;7.80;99.90;;;;;;4954266;28;20207;-34
2023/12/11 07:35:58;;;;;;;1.63;1.50;;;7.70;99.90;;;;;;4935478;29;20195;-33
2023/12/11 07:38:27;;;;;;;1.77;1.53;;;7.70;99.90;;;;;;4935820;28;20185;-32
2023/12/11 07:40:55;;;;;;;2.80;1.50;;;7.70;99.90;;;;;;4920245;29;20217;-32
2023/12/11 07:43:21;;;;;;;2.50;1.10;;;7.70;99.90;;;;;;4936071;29;20249;-32
2023/12/11 07:45:47;;;;;;;2.47;1.10;;;7.80;99.90;;;;;;4967278;28;20185;-32
2023/12/11 07:48:12;;;;;;;1.80;1.10;;;7.80;99.90;;;;;;4919277;29;20216;-31
2023/12/11 07:50:39;;;;;;;1.83;1.03;;;7.80;99.90;;;;;;4919868;29;20271;-31
2023/12/11 07:53:05;;;;;;;2.00;1.20;;;7.80;99.90;;;;;;4935889;29;20268;-31
2023/12/11 07:55:31;;;;;;;1.30;1.20;;;7.80;99.90;;;;;;4919787;29;20216;-31
2023/12/11 07:57:58;;;;;;;5.27;2.73;;;7.80;99.90;;;;;;4920079;29;20212;-30
2023/12/11 08:00:23;;;;;;;2.17;1.57;;;7.80;99.90;;;;;;4935638;29;20233;-30
2023/12/11 08:02:49;;;;;;;2.70;1.23;;;7.80;99.90;;;;;;4919841;28;20228;-34
2023/12/11 08:05:15;;;;;;;1.33;1.20;;;7.80;99.90;;;;;;4940228;29;20185;-30
2023/12/11 08:07:41;;;;;;;4.17;1.70;;;7.80;99.90;;;;;;4919279;29;20189;-30
2023/12/11 08:10:07;;;;;;;3.00;1.37;;;7.80;99.90;;;;;;4935398;28;20403;-29
2023/12/11 08:12:33;;;;;;;2.20;1.30;;;7.70;99.90;;;;;;4919095;29;20212;-31
2023/12/11 08:14:59;;;;;;;2.27;1.37;;;7.70;99.90;;;;;;4931756;28;20669;-30
2023/12/11 08:17:25;;;;;;;1.93;1.10;;;7.70;99.90;;;;;;4947223;29;20177;-29
2023/12/11 08:19:51;;;;;;;1.77;1.17;;;7.70;99.90;;;;;;4919041;29;20241;-30
2023/12/11 08:22:17;;;;;;;1.70;1.57;;;7.70;99.90;;;;;;4935710;29;20209;-31
2023/12/11 08:24:43;;;;;;;2.43;1.90;;;7.60;99.90;;;;;;4935403;29;20185;-31
2023/12/11 08:27:09;;;;;;;2.93;1.57;;;7.70;99.90;;;;;;4935210;29;20216;-31
2023/12/11 08:29:36;;;;;;;1.97;1.40;;;7.60;99.90;;;;;;4919487;29;20189;-31
2023/12/11 08:32:02;;;;;;;1.60;1.40;;;7.60;99.90;;;;;;4919711;29;20224;-31
2023/12/11 08:34:28;;;;;;;1.90;1.27;;;7.50;99.90;;;;;;4934900;29;20262;-32
2023/12/11 08:36:55;;;;;;;2.60;1.67;;;7.50;99.90;;;;;;4919072;29;20289;-31
2023/12/11 08:39:21;;;;;;;3.07;2.13;;;7.50;99.90;;;;;;4935389;29;20213;-31
2023/12/11 08:41:48;;;;;;;3.80;2.00;;;7.50;99.90;;;;;;4919554;29;20204;-31
2023/12/11 08:44:17;;;;;;;3.07;1.90;;;7.50;99.90;;;;;;4925281;28;20189;-31
2023/12/11 08:46:43;;;;;;;3.23;2.10;;;7.50;99.90;;;;;;4951960;28;20185;-32
2023/12/11 08:49:10;;;;;;;1.60;1.50;;;7.50;99.90;;;;;;4919689;29;20196;-32
2023/12/11 08:51:36;;;;;;;2.10;1.90;;;7.60;99.90;;;;;;4918916;29;20251;-32
2023/12/11 08:54:02;;;;;;;3.30;1.70;;;7.60;99.90;;;;;;4935180;29;20189;-32
2023/12/11 08:56:27;;;;;;;2.77;1.53;;;7.60;99.90;;;;;;4952114;29;20650;-29
2023/12/11 08:58:53;;;;;;;2.53;1.97;;;7.60;99.90;;;;;;4934961;29;20185;-31
2023/12/11 09:01:19;;;;;;;2.80;1.40;;;7.60;99.90;;;;;;4922457;29;20209;-29
2023/12/11 09:03:46;;;;;;;2.23;1.20;;;7.60;99.90;;;;;;4944186;28;20275;-30
2023/12/11 09:06:13;;;;;;;2.50;1.00;;;7.60;99.90;;;;;;4922807;28;20213;-30
2023/12/11 09:08:39;;;;;;;4.07;1.70;;;7.60;99.90;;;;;;4938952;29;20182;-30
2023/12/11 09:11:05;;;;;;;1.67;1.00;;;7.70;99.90;;;;;;4922877;29;20205;-33
2023/12/11 09:13:31;;;;;;;1.80;1.37;;;7.70;99.90;;;;;;4923002;28;20188;-32
2023/12/11 09:15:57;;;;;;;2.17;1.70;;;7.70;99.90;;;;;;4957778;28;20251;-29
2023/12/11 09:18:23;;;;;;;3.77;1.93;;;7.70;99.90;;;;;;4942863;29;20189;-31
2023/12/11 09:20:49;;;;;;;3.23;1.80;;;7.70;99.90;;;;;;4938133;28;20216;-30
2023/12/11 09:23:15;;;;;;;4.37;1.90;;;7.70;99.90;;;;;;4954941;28;20257;-30
2023/12/11 09:25:41;;;;;;;2.53;1.67;;;7.70;99.90;;;;;;4955263;29;20717;-29
2023/12/11 09:28:07;;;;;;;1.93;1.60;;;7.70;99.90;;;;;;4922540;29;20186;-33
2023/12/11 09:30:33;;;;;;;17.97;6.37;;;7.80;99.90;;;;;;4922317;28;20220;-31
2023/12/11 09:32:58;;;;;;;5.80;2.70;;;7.70;99.90;;;;;;4938488;29;20221;-32
2023/12/11 09:35:24;;;;;;;2.57;2.20;;;7.70;99.90;;;;;;4954517;29;20205;-32
2023/12/11 09:37:50;;;;;;;3.00;2.13;;;7.70;99.90;;;;;;4922606;29;20280;-32
2023/12/11 09:40:16;;;;;;;2.77;2.13;;;7.70;99.90;;;;;;4954256;28;20264;-32
2023/12/11 09:42:43;;;;;;;4.53;2.50;;;7.70;99.90;;;;;;4922312;29;20195;-31
2023/12/11 09:45:13;;;;;;;5.20;2.17;;;7.80;99.90;;;;;;4934909;28;20189;-32
2023/12/11 09:47:49;;;;;;;3.53;2.57;;;7.80;99.90;;;;;;4948393;29;20273;-31
2023/12/11 09:50:15;;;;;;;3.63;2.63;;;7.80;99.90;;;;;;4955628;28;20205;-32
2023/12/11 09:52:42;;;;;;;4.33;2.67;;;7.90;99.90;;;;;;4937987;29;20193;-31
2023/12/11 09:55:09;;;;;;;3.20;2.37;;;8.00;99.90;;;;;;4922324;29;20240;-31
2023/12/11 09:57:37;;;;;;;5.93;2.97;;;8.10;99.90;;;;;;4937675;29;20197;-32
2023/12/11 10:00:04;;;;;;;4.07;3.03;;;8.10;99.90;;;;;;4920442;28;20687;-31
2023/12/11 10:02:31;;;;;;;4.83;2.97;;;8.10;99.90;;;;;;4934785;28;20197;-32
2023/12/11 10:05:24;;;;;;;4.53;2.70;;;8.20;99.90;;;;;;4936254;29;20219;-32
2023/12/11 10:07:50;;;;;;;5.33;2.87;;;8.20;99.90;;;;;;4937618;29;20189;-31
2023/12/11 10:10:28;;;;;;;5.23;2.80;;;8.30;99.90;;;;;;4937657;28;20204;-32
2023/12/11 10:12:55;;;;;;;3.77;2.70;;;8.30;99.90;;;;;;4936219;29;20224;-31
2023/12/11 10:15:26;;;;;;;4.00;2.60;;;8.40;99.90;;;;;;4952142;28;20192;-31
2023/12/11 10:18:12;;;;;;;4.30;3.17;;;8.40;99.90;;;;;;4946193;29;20252;-32
2023/12/11 10:20:40;;;;;;;9.00;8.10;;;8.40;99.90;;;;;;4937626;29;20259;-31
2023/12/11 10:23:18;;;;;;;8.70;5.20;;;8.50;99.90;;;;;;4937397;29;20264;-32
2023/12/11 10:25:47;;;;;;;6.80;4.77;;;8.50;99.90;;;;;;4937513;29;20184;-31
2023/12/11 10:28:15;;;;;;;5.77;4.63;;;8.50;99.90;;;;;;4921640;29;20741;-32
2023/12/11 10:30:54;;;;;;;5.30;2.87;;;8.60;99.90;;;;;;4936270;29;20720;-32
2023/12/11 10:33:22;;;;;;;3.77;2.57;;;8.70;99.90;;;;;;4921723;29;20275;-32
2023/12/11 10:35:49;;;;;;;3.10;2.60;;;8.80;99.90;;;;;;4953963;28;20189;-32
2023/12/11 10:38:22;;;;;;;3.87;2.20;;;9.00;99.90;;;;;;4954466;28;20189;-32
2023/12/11 10:40:51;;;;;;;3.43;1.50;;;9.30;99.90;;;;;;4920986;29;20217;-31
2023/12/11 10:43:17;;;;;;;2.60;1.30;;;9.50;99.90;;;;;;4921245;29;20200;-32
2023/12/11 10:45:45;;;;;;;2.87;1.10;;;9.70;99.90;;;;;;4945953;28;20181;-32
2023/12/11 10:48:11;;;;;;;1.67;0.90;;;9.80;99.90;;;;;;4943428;29;20205;-31
2023/12/11 10:50:37;;;;;;;2.10;0.90;;;10.00;99.90;;;;;;4921022;29;20219;-32
2023/12/11 10:53:03;;;;;;;2.07;0.80;;;10.00;99.90;;;;;;4937175;29;20192;-32
2023/12/11 10:55:33;;;;;;;2.80;0.90;;;10.20;99.90;;;;;;4952668;28;20188;-31
2023/12/11 10:58:03;;;;;;;0.90;0.80;;;10.30;99.90;;;;;;4920447;28;20294;-31
2023/12/11 11:00:31;;;;;;;1.57;0.73;;;10.40;99.90;;;;;;4955811;28;20222;-32
2023/12/11 11:02:58;;;;;;;1.63;0.80;;;10.40;99.90;;;;;;4944778;29;20332;-32
2023/12/11 11:05:31;;;;;;;2.23;0.83;;;10.50;99.90;;;;;;4951777;28;20182;-32
2023/12/11 11:08:04;;;;;;;0.87;0.60;;;10.60;99.90;;;;;;4936603;29;20278;-32
2023/12/11 11:10:56;;;;;;;1.83;1.10;;;10.70;99.90;;;;;;4936964;29;20770;-31
2023/12/11 11:13:30;;;;;;;0.40;0.40;;;10.80;99.90;;;;;;4938229;29;20180;-32
2023/12/11 11:15:56;;;;;;;1.23;0.80;;;10.90;99.90;;;;;;4954148;28;20199;-32
2023/12/11 11:18:22;;;;;;;2.70;0.70;;;10.90;99.90;;;;;;4941870;29;20188;-32
2023/12/11 11:21:07;;;;;;;1.93;0.67;;;10.90;99.90;;;;;;4919884;28;20219;-31
2023/12/11 11:23:42;;;;;;;1.43;0.60;;;10.90;99.90;;;;;;4936269;29;20183;-31
2023/12/11 11:26:34;;;;;;;1.27;0.60;;;11.00;99.90;;;;;;4918554;28;20188;-32
2023/12/11 11:29:01;;;;;;;0.80;0.80;;;11.00;99.90;;;;;;4936142;29;20654;-32
2023/12/11 11:31:52;;;;;;;1.43;0.70;;;11.00;99.90;;;;;;4920093;29;20224;-32
2023/12/11 11:34:44;;;;;;;1.73;0.80;;;11.10;99.90;;;;;;4920229;29;20181;-32
2023/12/11 11:37:18;;;;;;;1.63;0.90;;;11.10;99.90;;;;;;4950697;29;20195;-32
2023/12/11 11:40:02;;;;;;;0.90;0.70;;;11.20;99.90;;;;;;4920103;29;20220;-32
2023/12/11 11:42:32;;;;;;;1.47;0.87;;;11.30;99.90;;;;;;4936297;29;20177;-31
2023/12/11 11:45:04;;;;;;;1.20;0.97;;;11.30;99.90;;;;;;4932753;29;20203;-32
2023/12/11 11:47:31;;;;;;;2.50;1.70;;;11.40;99.90;;;;;;4935291;29;20180;-35
2023/12/11 11:50:11;;;;;;;2.40;1.17;;;11.40;99.90;;;;;;4935849;28;20200;-36
2023/12/11 11:52:38;;;;;;;2.43;0.67;;;11.50;99.90;;;;;;4936216;29;20207;-34
2023/12/11 11:55:26;;;;;;;2.73;1.10;;;11.50;99.90;;;;;;4919717;29;20236;-33
2023/12/11 11:57:53;;;;;;;2.50;1.40;;;11.50;99.90;;;;;;4935611;29;20199;-33
2023/12/11 12:00:36;;;;;;;3.27;1.60;;;11.60;99.90;;;;;;4922294;28;20227;-33
2023/12/11 12:03:08;;;;;;;2.50;0.60;;;11.60;99.90;;;;;;4942310;29;20184;-32
2023/12/11 12:05:38;;;;;;;1.27;0.90;;;11.50;99.90;;;;;;4934855;29;20256;-33
2023/12/11 12:08:08;;;;;;;2.83;1.13;;;11.50;99.90;;;;;;4950681;28;20200;-32
2023/12/11 12:10:34;;;;;;;3.83;1.10;;;11.50;99.90;;;;;;4919711;29;20263;-34
2023/12/11 12:13:03;;;;;;;5.43;2.70;;;11.50;99.90;;;;;;4935928;29;20193;-34
2023/12/11 12:15:43;;;;;;;4.43;2.40;;;11.50;99.90;;;;;;4927510;29;20284;-33
2023/12/11 12:18:09;;;;;;;4.50;1.90;;;11.50;99.90;;;;;;4935301;29;20184;-35
2023/12/11 12:20:35;;;;;;;3.50;2.03;;;11.50;99.90;;;;;;4934039;29;20224;-33
2023/12/11 12:23:06;;;;;;;3.13;1.93;;;11.60;99.90;;;;;;4919923;29;20186;-32
2023/12/11 12:25:33;;;;;;;4.40;1.90;;;11.60;99.90;;;;;;4934421;28;20186;-35
2023/12/11 12:28:04;;;;;;;4.97;1.60;;;11.60;99.90;;;;;;4929855;29;20178;-32
2023/12/11 12:30:33;;;;;;;4.07;2.77;;;11.70;99.90;;;;;;4934265;29;20205;-35
2023/12/11 12:33:00;;;;;;;3.23;1.37;;;11.80;99.90;;;;;;4945231;28;20194;-33
2023/12/11 12:35:29;;;;;;;1.57;0.83;;;11.90;99.90;;;;;;4927034;29;20189;-34
2023/12/11 12:37:56;;;;;;;1.43;0.80;;;12.00;99.90;;;;;;4933740;29;20189;-33
2023/12/11 12:40:23;;;;;;;2.33;1.10;;;12.10;99.90;;;;;;4912750;29;20241;-33
2023/12/11 12:42:49;;;;;;;3.43;0.77;;;12.20;99.90;;;;;;4929271;29;20197;-33
2023/12/11 12:45:28;;;;;;;1.63;0.80;;;12.30;99.90;;;;;;4934774;29;20261;-36
2023/12/11 12:47:54;;;;;;;3.40;1.23;;;12.30;99.90;;;;;;4930949;29;20252;-34
2023/12/11 12:50:24;;;;;;;3.33;1.47;;;12.30;99.90;;;;;;4933374;29;20205;-35
2023/12/11 12:53:02;;;;;;;3.47;1.33;;;12.30;99.90;;;;;;4941182;29;20185;-33
2023/12/11 12:55:31;;;;;;;2.63;1.10;;;12.30;99.90;;;;;;4950960;28;20232;-33
2023/12/11 12:57:57;;;;;;;1.50;1.00;;;12.40;99.90;;;;;;4922786;29;20189;-34